createdAt,value
2019-01-03T00:00:38.422Z,51.42
2019-01-03T00:04:45.758Z,59.91
2019-01-03T00:08:53.076Z,47.10
2019-01-03T00:13:16.490Z,58.89
2019-01-03T00:17:39.967Z,49.69
2019-01-03T00:21:47.346Z,50.51
2019-01-03T00:25:54.671Z,54.78
2019-01-03T00:30:00.164Z,51.73
2019-01-03T00:34:05.596Z,59.94
2019-01-03T00:38:24.485Z,49.85
2019-01-03T00:42:40.536Z,41.43
2019-01-03T00:46:50.595Z,52.03
2019-01-03T00:51:06.729Z,45.62
2019-01-03T00:55:15.115Z,56.56
2019-01-03T00:59:25.077Z,47.04
2019-01-03T01:03:56.712Z,52.32
2019-01-03T01:08:18.851Z,54.33
2019-01-03T01:12:42.166Z,54.64
2019-01-03T01:16:52.166Z,43.02
2019-01-03T01:21:11.448Z,45.95
2019-01-03T01:25:21.443Z,49.18
2019-01-03T01:29:29.609Z,45.47
2019-01-03T01:33:52.735Z,53.19
2019-01-03T01:38:12.001Z,45.59
2019-01-03T01:42:34.931Z,54.43
2019-01-03T01:46:42.286Z,49.41
2019-01-03T01:50:55.311Z,49.06
2019-01-03T01:55:18.512Z,43.19
2019-01-03T01:59:43.710Z,49.80
2019-01-03T02:03:53.488Z,50.74
2019-01-03T02:08:18.932Z,40.85
2019-01-03T02:12:28.982Z,49.94
2019-01-03T02:16:37.139Z,43.68
2019-01-03T02:20:44.484Z,47.98
2019-01-03T02:24:51.788Z,49.41
2019-01-03T02:28:59.116Z,45.24
2019-01-03T02:33:06.475Z,48.10
2019-01-03T02:37:16.509Z,52.46
2019-01-03T02:41:23.826Z,45.16
2019-01-03T02:45:36.819Z,47.66
2019-01-03T02:49:44.136Z,48.01
2019-01-03T02:54:06.031Z,41.62
2019-01-03T02:58:11.545Z,49.52
2019-01-03T03:02:18.873Z,48.32
2019-01-03T03:06:42.313Z,52.32
2019-01-03T03:10:58.495Z,48.00
2019-01-03T03:15:14.662Z,53.93
2019-01-03T03:19:37.636Z,49.08
2019-01-03T03:23:56.653Z,48.62
2019-01-03T03:28:06.732Z,46.65
2019-01-03T03:32:16.753Z,55.33
2019-01-03T03:36:24.901Z,54.98
2019-01-03T03:40:50.243Z,50.67
2019-01-03T03:45:06.346Z,46.67
2019-01-03T03:49:22.614Z,56.72
2019-01-03T03:53:42.892Z,47.29
2019-01-03T03:58:06.070Z,49.34
2019-01-03T04:02:29.354Z,42.33
2019-01-03T04:06:51.558Z,46.57
2019-01-03T04:11:07.650Z,41.85
2019-01-03T04:15:14.968Z,49.83
2019-01-03T04:19:38.281Z,48.55
2019-01-03T04:23:54.797Z,43.24
2019-01-03T04:28:02.151Z,47.68
2019-01-03T04:32:18.368Z,57.86
2019-01-03T04:36:25.691Z,46.28
2019-01-03T04:40:33.002Z,52.21
2019-01-03T04:44:43.036Z,54.71
2019-01-03T04:48:50.377Z,57.30
2019-01-03T04:53:09.604Z,54.66
2019-01-03T04:57:25.623Z,44.49
2019-01-03T05:01:56.600Z,54.52
2019-01-03T05:06:15.672Z,45.16
2019-01-03T05:10:25.935Z,45.51
2019-01-03T05:14:45.440Z,59.50
2019-01-03T05:19:07.833Z,52.01
2019-01-03T05:23:31.098Z,50.01
2019-01-03T05:27:38.447Z,51.53
2019-01-03T05:32:03.694Z,54.17
2019-01-03T05:36:09.159Z,51.66
2019-01-03T05:40:29.786Z,54.60
2019-01-03T05:44:39.783Z,49.88
2019-01-03T05:48:51.252Z,52.47
2019-01-03T05:52:59.429Z,54.47
2019-01-03T05:57:12.466Z,48.08
2019-01-03T06:01:35.900Z,57.44
2019-01-03T06:05:59.079Z,57.11
2019-01-03T06:10:11.179Z,51.20
2019-01-03T06:14:18.499Z,47.08
2019-01-03T06:18:25.839Z,45.81
2019-01-03T06:22:44.812Z,46.74
2019-01-03T06:27:08.320Z,45.61
2019-01-03T06:31:19.426Z,46.35
2019-01-03T06:35:42.756Z,47.98
2019-01-03T06:40:06.232Z,49.27
2019-01-03T06:44:19.289Z,54.33
2019-01-03T06:48:26.671Z,52.21
2019-01-03T06:52:34.025Z,56.45
2019-01-03T06:56:56.257Z,60.61
2019-01-03T07:01:03.593Z,56.63
2019-01-03T07:05:26.916Z,56.66
2019-01-03T07:09:50.206Z,57.45
2019-01-03T07:14:03.572Z,55.98
2019-01-03T07:18:13.820Z,57.75
2019-01-03T07:22:28.750Z,59.12
2019-01-03T07:26:52.090Z,57.66
2019-01-03T07:30:57.562Z,53.84
2019-01-03T07:35:07.832Z,57.64
2019-01-03T07:39:23.842Z,48.12
2019-01-03T07:43:37.955Z,56.04
2019-01-03T07:48:01.181Z,56.41
2019-01-03T07:52:14.361Z,56.88
2019-01-03T07:56:37.587Z,58.06
2019-01-03T08:00:51.851Z,55.43
2019-01-03T08:05:02.067Z,58.74
2019-01-03T08:09:15.332Z,55.84
2019-01-03T08:13:20.795Z,54.45
2019-01-03T08:17:28.935Z,45.01
2019-01-03T08:21:48.311Z,46.48
2019-01-03T08:26:13.593Z,46.79
2019-01-03T08:30:38.761Z,62.41
2019-01-03T08:34:48.780Z,47.43
2019-01-03T08:38:58.763Z,42.02
2019-01-03T08:43:08.819Z,44.79
2019-01-03T08:47:31.022Z,45.41
2019-01-03T08:51:54.465Z,50.42
2019-01-03T08:56:01.788Z,59.03
2019-01-03T09:00:09.798Z,61.21
2019-01-03T09:04:18.088Z,59.62
2019-01-03T09:08:41.738Z,53.88
2019-01-03T09:12:49.163Z,50.80
2019-01-03T09:17:00.121Z,52.56
2019-01-03T09:21:07.541Z,55.44
2019-01-03T09:25:32.758Z,46.24
2019-01-03T09:29:55.752Z,60.18
2019-01-03T09:34:21.168Z,50.13
2019-01-03T09:38:32.351Z,50.72
2019-01-03T09:42:45.380Z,51.42
2019-01-03T09:46:51.065Z,51.66
2019-01-03T09:50:56.797Z,51.19
2019-01-03T09:55:02.523Z,44.93
2019-01-03T09:59:08.290Z,42.96
2019-01-03T10:03:13.987Z,58.04
2019-01-03T10:07:19.712Z,44.02
2019-01-03T10:11:25.385Z,43.57
2019-01-03T10:15:31.073Z,46.18
2019-01-03T10:19:36.790Z,43.98
2019-01-03T10:23:42.486Z,44.39
2019-01-03T10:27:48.178Z,45.05
2019-01-03T10:31:53.851Z,45.19
2019-01-03T10:35:59.545Z,44.73
2019-01-03T10:40:07.153Z,48.57
2019-01-03T10:44:13.837Z,44.21
2019-01-03T10:48:19.517Z,45.37
2019-01-03T10:52:25.240Z,56.13
2019-01-03T10:56:30.899Z,49.41
2019-01-03T11:00:36.647Z,39.97
2019-01-03T11:04:42.337Z,42.92
2019-01-03T11:08:48.033Z,44.75
2019-01-03T11:12:53.710Z,41.97
2019-01-03T11:16:59.402Z,43.01
2019-01-03T11:21:05.123Z,40.05
2019-01-03T11:25:10.810Z,40.30
2019-01-03T11:29:16.491Z,41.46
2019-01-03T11:33:22.182Z,46.86
2019-01-03T11:37:27.875Z,40.79
2019-01-03T11:41:33.598Z,51.17
2019-01-03T11:45:42.267Z,47.08
2019-01-03T11:49:47.976Z,44.68
2019-01-03T11:53:53.646Z,41.24
2019-01-03T11:57:59.383Z,46.19
2019-01-03T12:06:29.545Z,46.55
2019-01-03T12:10:36.196Z,42.17
2019-01-03T12:14:41.875Z,52.26
2019-01-03T12:18:47.560Z,46.83
2019-01-03T12:22:53.284Z,41.68
2019-01-03T12:26:58.960Z,43.74
2019-01-03T12:31:04.652Z,47.11
2019-01-03T12:35:10.330Z,48.30
2019-01-03T12:39:16.074Z,48.23
2019-01-03T12:43:21.799Z,44.99
2019-01-03T12:47:27.494Z,43.52
2019-01-03T12:51:33.162Z,44.56
2019-01-03T12:55:38.860Z,44.57
2019-01-03T12:59:44.543Z,44.82
2019-01-03T13:03:50.257Z,49.01
2019-01-03T13:07:55.956Z,51.17
2019-01-03T13:12:01.644Z,46.51
2019-01-03T13:16:07.359Z,50.62
2019-01-03T13:20:13.038Z,51.47
2019-01-03T13:24:18.722Z,55.68
2019-01-03T13:28:24.449Z,49.62
2019-01-03T13:32:30.173Z,52.12
2019-01-03T13:36:35.872Z,51.34
2019-01-03T13:40:41.565Z,47.79
2019-01-03T13:44:47.322Z,48.19
2019-01-03T13:48:53.004Z,57.31
2019-01-03T13:52:58.691Z,56.16
2019-01-03T13:57:04.388Z,49.57
2019-01-03T14:01:10.091Z,50.38
2019-01-03T14:05:15.789Z,52.67
2019-01-03T14:09:21.453Z,58.30
2019-01-03T14:19:50.198Z,57.99
2019-01-03T14:23:55.933Z,53.96
2019-01-03T14:28:49.839Z,53.81
2019-01-03T14:32:55.524Z,52.05
2019-01-03T14:37:03.804Z,57.31
2019-01-03T14:41:09.519Z,55.56
2019-01-03T14:45:15.229Z,53.50
2019-01-03T14:49:21.502Z,59.39
2019-01-03T14:53:27.258Z,54.14
2019-01-03T14:57:32.956Z,60.32
2019-01-03T15:01:38.638Z,53.74
2019-01-03T15:05:44.313Z,54.71
2019-01-03T15:09:49.994Z,60.01
2019-01-03T15:13:55.708Z,59.68
2019-01-03T15:18:01.407Z,62.33
2019-01-03T15:22:07.153Z,60.83
2019-01-03T15:26:14.663Z,58.45
2019-01-03T15:30:20.416Z,61.29
2019-01-03T15:34:26.090Z,68.02
2019-01-03T15:38:31.789Z,55.32
2019-01-03T15:42:37.464Z,61.01
2019-01-03T15:46:43.150Z,58.89
2019-01-03T15:50:48.905Z,57.33
2019-01-03T15:54:54.675Z,52.67
2019-01-03T15:59:00.373Z,56.04
2019-01-03T16:03:06.068Z,55.28
2019-01-03T16:07:11.765Z,57.15
2019-01-03T16:11:17.462Z,59.39
2019-01-03T16:15:23.190Z,56.96
2019-01-03T16:19:28.933Z,54.51
2019-01-03T16:23:34.611Z,50.96
2019-01-03T16:27:40.355Z,59.84
2019-01-03T16:31:46.174Z,55.35
2019-01-03T16:35:51.908Z,56.80
2019-01-03T16:39:57.843Z,56.66
2019-01-03T16:44:03.672Z,58.46
2019-01-03T16:48:09.369Z,54.96
2019-01-03T16:52:15.056Z,52.41
2019-01-03T16:56:20.775Z,55.13
2019-01-03T17:00:26.453Z,61.31
2019-01-03T17:04:32.214Z,58.12
2019-01-03T17:08:37.919Z,54.48
2019-01-03T17:12:43.607Z,53.14
2019-01-03T17:16:49.305Z,64.24
2019-01-03T17:20:54.980Z,53.49
2019-01-03T17:25:00.683Z,58.37
2019-01-03T17:29:06.359Z,62.43
2019-01-03T17:33:12.087Z,54.04
2019-01-03T17:37:17.825Z,57.84
2019-01-03T17:41:23.501Z,57.27
2019-01-03T17:45:29.231Z,59.16
2019-01-03T17:49:34.897Z,64.11
2019-01-03T17:53:40.590Z,64.57
2019-01-03T17:57:46.269Z,54.93
2019-01-03T18:01:53.258Z,55.88
2019-01-03T18:05:58.965Z,48.22
2019-01-03T18:10:07.505Z,52.74
2019-01-03T18:14:13.223Z,53.68
2019-01-03T18:18:18.885Z,56.91
2019-01-03T18:22:24.616Z,58.29
2019-01-03T18:26:30.313Z,57.80
2019-01-03T18:30:36.110Z,63.78
2019-01-03T18:34:41.812Z,55.22
2019-01-03T18:38:47.571Z,56.14
2019-01-03T18:42:53.282Z,59.10
2019-01-03T18:46:59.044Z,58.27
2019-01-03T18:51:04.740Z,57.40
2019-01-03T18:55:10.607Z,59.87
2019-01-03T18:59:16.311Z,54.78
2019-01-03T19:03:22.084Z,59.17
2019-01-03T19:07:28.778Z,58.42
2019-01-03T19:11:34.733Z,57.24
2019-01-03T19:15:40.539Z,61.51
2019-01-03T19:19:47.248Z,60.37
2019-01-03T19:23:55.439Z,60.47
2019-01-03T19:28:01.433Z,53.99
2019-01-03T19:32:08.648Z,55.35
2019-01-03T19:36:14.352Z,56.40
2019-01-03T19:40:20.049Z,56.35
2019-01-03T19:44:25.773Z,61.57
2019-01-03T19:48:31.510Z,56.53
2019-01-03T19:52:37.233Z,59.12
2019-01-03T19:56:42.955Z,60.77
2019-01-03T20:00:48.661Z,63.72
2019-01-03T20:04:54.367Z,61.33
2019-01-03T20:09:00.103Z,56.54
2019-01-03T20:13:05.914Z,57.44
2019-01-03T20:17:11.650Z,56.42
2019-01-03T20:21:17.422Z,60.39
2019-01-03T20:25:23.224Z,57.59
2019-01-03T20:29:31.830Z,59.78
2019-01-03T20:33:37.556Z,55.65
2019-01-03T20:37:43.406Z,54.62
2019-01-03T20:41:49.106Z,60.45
2019-01-03T20:45:54.892Z,63.47
2019-01-03T20:50:00.567Z,57.96
2019-01-03T20:54:06.398Z,56.87
2019-01-03T20:58:12.137Z,56.71
2019-01-03T21:02:17.868Z,57.17
2019-01-03T21:06:23.571Z,56.77
2019-01-03T21:10:29.266Z,63.72
2019-01-03T21:14:34.998Z,58.64
2019-01-03T21:18:40.820Z,59.52
2019-01-03T21:22:46.600Z,57.02
2019-01-03T21:26:54.947Z,58.98
2019-01-03T21:31:00.811Z,59.04
2019-01-03T21:35:07.072Z,60.68
2019-01-03T21:39:12.843Z,55.23
2019-01-03T21:43:18.649Z,55.81
2019-01-03T21:47:24.413Z,56.31
2019-01-03T21:51:31.657Z,55.10
2019-01-03T21:55:37.359Z,57.31
2019-01-03T21:59:43.088Z,56.50
2019-01-03T22:03:48.814Z,55.85
2019-01-03T22:07:54.485Z,54.29
2019-01-03T22:12:00.202Z,57.82
2019-01-03T22:16:05.984Z,56.61
2019-01-03T22:20:11.703Z,58.09
2019-01-03T22:24:17.391Z,55.66
2019-01-03T22:28:23.093Z,57.76
2019-01-03T22:32:28.837Z,55.46
2019-01-03T22:36:34.537Z,54.40
2019-01-03T22:40:40.245Z,56.19
2019-01-03T22:44:45.949Z,55.60
2019-01-03T22:48:51.626Z,60.84
2019-01-03T22:52:57.343Z,55.01
2019-01-03T22:57:03.061Z,57.57
2019-01-03T23:01:09.795Z,60.44
2019-01-03T23:05:15.500Z,59.80
2019-01-03T23:09:21.209Z,54.37
2019-01-03T23:13:51.007Z,54.04
2019-01-03T23:17:56.787Z,54.16
2019-01-03T23:22:02.495Z,53.59
2019-01-03T23:26:08.233Z,54.76
2019-01-03T23:30:14.064Z,54.40
2019-01-03T23:34:19.759Z,58.81
2019-01-03T23:38:25.456Z,56.63
2019-01-03T23:42:31.193Z,52.71
2019-01-03T23:46:36.972Z,55.07
2019-01-03T23:50:42.695Z,54.01
2019-01-03T23:54:48.415Z,57.10
2019-01-03T23:58:54.106Z,54.26
